sensor_id;sensor_type;location;lat;lon;timestamp;pressure;altitude;pressure_sealevel;temperature;humidity
65872;BME280;52653;50.080;21.992;2023-01-16T00:00:53;98450.89;;;3.51;88.53
65872;BME280;52653;50.080;21.992;2023-01-16T00:03:46;98449.34;;;3.53;88.50
65872;BME280;52653;50.080;21.992;2023-01-16T00:06:39;98442.09;;;3.55;88.35
65872;BME280;52653;50.080;21.992;2023-01-16T00:09:32;98435.52;;;3.58;88.19
65872;BME280;52653;50.080;21.992;2023-01-16T00:12:24;98427.55;;;3.58;88.07
65872;BME280;52653;50.080;21.992;2023-01-16T00:15:17;98421.14;;;3.58;88.21
65872;BME280;52653;50.080;21.992;2023-01-16T00:18:11;98417.85;;;3.58;88.17
65872;BME280;52653;50.080;21.992;2023-01-16T00:21:05;98415.56;;;3.56;88.31
65872;BME280;52653;50.080;21.992;2023-01-16T00:24:00;98415.00;;;3.50;88.13
65872;BME280;52653;50.080;21.992;2023-01-16T00:26:54;98414.42;;;3.42;88.20
65872;BME280;52653;50.080;21.992;2023-01-16T00:29:47;98410.73;;;3.37;88.36
65872;BME280;52653;50.080;21.992;2023-01-16T00:32:41;98413.33;;;3.34;88.37
65872;BME280;52653;50.080;21.992;2023-01-16T00:35:35;98410.55;;;3.32;88.62
65872;BME280;52653;50.080;21.992;2023-01-16T00:38:31;98408.80;;;3.31;88.42
65872;BME280;52653;50.080;21.992;2023-01-16T00:41:26;98408.27;;;3.31;88.55
65872;BME280;52653;50.080;21.992;2023-01-16T00:44:18;98403.26;;;3.31;88.73
65872;BME280;52653;50.080;21.992;2023-01-16T00:47:11;98400.13;;;3.31;88.60
65872;BME280;52653;50.080;21.992;2023-01-16T00:50:05;98399.98;;;3.32;88.77
65872;BME280;52653;50.080;21.992;2023-01-16T00:52:59;98394.08;;;3.33;88.84
65872;BME280;52653;50.080;21.992;2023-01-16T00:55:35;98385.42;;;3.34;88.68
65872;BME280;52653;50.080;21.992;2023-01-16T00:58:28;98379.04;;;3.39;88.86
65872;BME280;52653;50.080;21.992;2023-01-16T01:01:21;98375.77;;;3.43;88.73
65872;BME280;52653;50.080;21.992;2023-01-16T01:04:14;98377.73;;;3.47;88.80
65872;BME280;52653;50.080;21.992;2023-01-16T01:07:07;98378.08;;;3.51;88.55
65872;BME280;52653;50.080;21.992;2023-01-16T01:09:53;98377.73;;;3.51;88.34
65872;BME280;52653;50.080;21.992;2023-01-16T01:12:46;98379.98;;;3.49;88.31
65872;BME280;52653;50.080;21.992;2023-01-16T01:15:39;98379.97;;;3.45;88.53
65872;BME280;52653;50.080;21.992;2023-01-16T01:18:32;98382.35;;;3.42;88.71
65872;BME280;52653;50.080;21.992;2023-01-16T01:21:25;98383.55;;;3.40;88.81
65872;BME280;52653;50.080;21.992;2023-01-16T01:24:18;98382.66;;;3.37;88.76
65872;BME280;52653;50.080;21.992;2023-01-16T01:27:10;98377.63;;;3.34;88.83
65872;BME280;52653;50.080;21.992;2023-01-16T01:30:04;98372.60;;;3.35;88.89
65872;BME280;52653;50.080;21.992;2023-01-16T01:32:57;98372.63;;;3.39;88.88
65872;BME280;52653;50.080;21.992;2023-01-16T01:35:51;98367.27;;;3.41;88.87
65872;BME280;52653;50.080;21.992;2023-01-16T01:38:44;98361.55;;;3.42;88.80
65872;BME280;52653;50.080;21.992;2023-01-16T01:41:40;98362.80;;;3.44;88.90
65872;BME280;52653;50.080;21.992;2023-01-16T01:44:49;98353.79;;;3.45;88.73
65872;BME280;52653;50.080;21.992;2023-01-16T01:47:46;98350.16;;;3.46;88.74
65872;BME280;52653;50.080;21.992;2023-01-16T01:50:45;98349.13;;;3.49;88.94
65872;BME280;52653;50.080;21.992;2023-01-16T01:53:44;98342.73;;;3.53;88.74
65872;BME280;52653;50.080;21.992;2023-01-16T01:56:45;98340.68;;;3.57;88.66
65872;BME280;52653;50.080;21.992;2023-01-16T01:59:42;98338.45;;;3.60;88.70
65872;BME280;52653;50.080;21.992;2023-01-16T02:02:45;98332.39;;;3.60;88.58
65872;BME280;52653;50.080;21.992;2023-01-16T02:05:45;98327.67;;;3.56;88.58
65872;BME280;52653;50.080;21.992;2023-01-16T02:08:41;98328.33;;;3.51;88.60
65872;BME280;52653;50.080;21.992;2023-01-16T02:11:38;98321.20;;;3.45;88.77
65872;BME280;52653;50.080;21.992;2023-01-16T02:14:35;98315.27;;;3.42;88.81
65872;BME280;52653;50.080;21.992;2023-01-16T02:17:29;98316.64;;;3.39;88.66
65872;BME280;52653;50.080;21.992;2023-01-16T02:20:34;98315.60;;;3.39;88.86
65872;BME280;52653;50.080;21.992;2023-01-16T02:23:59;98313.52;;;3.37;88.83
65872;BME280;52653;50.080;21.992;2023-01-16T02:27:16;98308.83;;;3.36;88.88
65872;BME280;52653;50.080;21.992;2023-01-16T02:30:20;98307.98;;;3.37;88.95
65872;BME280;52653;50.080;21.992;2023-01-16T02:33:26;98297.23;;;3.38;88.91
65872;BME280;52653;50.080;21.992;2023-01-16T02:36:27;98299.65;;;3.39;89.02
65872;BME280;52653;50.080;21.992;2023-01-16T02:39:29;98300.36;;;3.42;89.05
65872;BME280;52653;50.080;21.992;2023-01-16T02:42:27;98298.84;;;3.44;88.95
65872;BME280;52653;50.080;21.992;2023-01-16T02:45:28;98300.58;;;3.45;88.76
65872;BME280;52653;50.080;21.992;2023-01-16T02:48:49;98296.42;;;3.46;88.67
65872;BME280;52653;50.080;21.992;2023-01-16T02:51:49;98296.41;;;3.45;88.56
65872;BME280;52653;50.080;21.992;2023-01-16T02:54:52;98296.94;;;3.45;88.66
65872;BME280;52653;50.080;21.992;2023-01-16T02:57:53;98290.83;;;3.41;88.44
65872;BME280;52653;50.080;21.992;2023-01-16T03:00:52;98293.93;;;3.36;88.64
65872;BME280;52653;50.080;21.992;2023-01-16T03:03:42;98297.35;;;3.30;88.64
65872;BME280;52653;50.080;21.992;2023-01-16T03:07:01;98298.16;;;3.21;88.41
65872;BME280;52653;50.080;21.992;2023-01-16T03:10:07;98294.98;;;3.15;88.76
65872;BME280;52653;50.080;21.992;2023-01-16T03:13:29;98292.90;;;3.12;88.96
65872;BME280;52653;50.080;21.992;2023-01-16T03:16:31;98295.31;;;3.10;89.05
65872;BME280;52653;50.080;21.992;2023-01-16T03:19:35;98294.61;;;3.08;89.12
65872;BME280;52653;50.080;21.992;2023-01-16T03:22:36;98292.53;;;3.07;89.27
65872;BME280;52653;50.080;21.992;2023-01-16T03:25:51;98289.06;;;3.07;89.29
65872;BME280;52653;50.080;21.992;2023-01-16T03:28:52;98287.81;;;3.04;89.31
65872;BME280;52653;50.080;21.992;2023-01-16T03:31:44;98289.18;;;3.02;89.31
65872;BME280;52653;50.080;21.992;2023-01-16T03:34:46;98283.98;;;2.98;89.40
65872;BME280;52653;50.080;21.992;2023-01-16T03:37:44;98276.14;;;2.93;89.41
65872;BME280;52653;50.080;21.992;2023-01-16T03:40:36;98271.94;;;2.88;89.55
65872;BME280;52653;50.080;21.992;2023-01-16T03:43:32;98270.86;;;2.82;89.92
65872;BME280;52653;50.080;21.992;2023-01-16T03:46:28;98268.56;;;2.78;89.76
65872;BME280;52653;50.080;21.992;2023-01-16T03:49:25;98274.61;;;2.74;90.10
65872;BME280;52653;50.080;21.992;2023-01-16T03:52:24;98271.98;;;2.69;90.10
65872;BME280;52653;50.080;21.992;2023-01-16T03:55:23;98272.95;;;2.64;90.25
65872;BME280;52653;50.080;21.992;2023-01-16T03:58:24;98271.70;;;2.59;90.19
65872;BME280;52653;50.080;21.992;2023-01-16T04:01:24;98276.31;;;2.52;90.37
65872;BME280;52653;50.080;21.992;2023-01-16T04:04:24;98277.99;;;2.46;90.44
65872;BME280;52653;50.080;21.992;2023-01-16T04:07:22;98272.59;;;2.42;90.65
65872;BME280;52653;50.080;21.992;2023-01-16T04:10:21;98272.06;;;2.41;90.72
65872;BME280;52653;50.080;21.992;2023-01-16T04:13:18;98267.06;;;2.43;90.81
65872;BME280;52653;50.080;21.992;2023-01-16T04:16:14;98260.33;;;2.43;90.63
65872;BME280;52653;50.080;21.992;2023-01-16T04:19:13;98256.36;;;2.45;90.81
65872;BME280;52653;50.080;21.992;2023-01-16T04:22:09;98263.63;;;2.45;90.74
65872;BME280;52653;50.080;21.992;2023-01-16T04:25:11;98262.76;;;2.45;90.71
65872;BME280;52653;50.080;21.992;2023-01-16T04:28:05;98267.59;;;2.44;90.79
65872;BME280;52653;50.080;21.992;2023-01-16T04:30:57;98269.85;;;2.44;90.64
65872;BME280;52653;50.080;21.992;2023-01-16T04:33:52;98269.45;;;2.41;90.64
65872;BME280;52653;50.080;21.992;2023-01-16T04:36:45;98270.47;;;2.38;90.53
65872;BME280;52653;50.080;21.992;2023-01-16T04:39:39;98275.63;;;2.34;90.59
65872;BME280;52653;50.080;21.992;2023-01-16T04:42:32;98276.95;;;2.28;90.77
65872;BME280;52653;50.080;21.992;2023-01-16T04:45:27;98270.85;;;2.23;90.97
65872;BME280;52653;50.080;21.992;2023-01-16T04:48:18;98270.83;;;2.21;91.05
65872;BME280;52653;50.080;21.992;2023-01-16T04:51:04;98273.06;;;2.19;91.19
65872;BME280;52653;50.080;21.992;2023-01-16T04:54:00;98268.74;;;2.20;91.56
65872;BME280;52653;50.080;21.992;2023-01-16T04:56:53;98264.63;;;2.24;91.76
65872;BME280;52653;50.080;21.992;2023-01-16T04:59:48;98263.46;;;2.29;91.81
65872;BME280;52653;50.080;21.992;2023-01-16T05:02:41;98268.71;;;2.35;91.90
65872;BME280;52653;50.080;21.992;2023-01-16T05:05:27;98265.49;;;2.42;91.99
65872;BME280;52653;50.080;21.992;2023-01-16T05:08:20;98258.45;;;2.49;91.79
65872;BME280;52653;50.080;21.992;2023-01-16T05:11:17;98253.85;;;2.55;92.02
65872;BME280;52653;50.080;21.992;2023-01-16T05:14:10;98249.74;;;2.62;91.94
65872;BME280;52653;50.080;21.992;2023-01-16T05:17:02;98243.41;;;2.70;91.77
65872;BME280;52653;50.080;21.992;2023-01-16T05:19:55;98237.22;;;2.77;91.59
65872;BME280;52653;50.080;21.992;2023-01-16T05:22:48;98237.64;;;2.84;91.48
65872;BME280;52653;50.080;21.992;2023-01-16T05:25:41;98239.92;;;2.91;91.30
65872;BME280;52653;50.080;21.992;2023-01-16T05:28:35;98233.73;;;2.97;91.21
65872;BME280;52653;50.080;21.992;2023-01-16T05:31:28;98236.36;;;3.03;90.87
65872;BME280;52653;50.080;21.992;2023-01-16T05:34:14;98230.52;;;3.08;90.85
65872;BME280;52653;50.080;21.992;2023-01-16T05:37:08;98233.48;;;3.13;90.82
65872;BME280;52653;50.080;21.992;2023-01-16T05:40:02;98242.50;;;3.14;90.60
65872;BME280;52653;50.080;21.992;2023-01-16T05:42:55;98238.17;;;3.15;90.36
65872;BME280;52653;50.080;21.992;2023-01-16T05:45:50;98230.89;;;3.15;90.15
65872;BME280;52653;50.080;21.992;2023-01-16T05:48:43;98230.58;;;3.18;90.13
65872;BME280;52653;50.080;21.992;2023-01-16T05:51:36;98224.70;;;3.18;89.93
65872;BME280;52653;50.080;21.992;2023-01-16T05:54:32;98214.30;;;3.19;90.03
65872;BME280;52653;50.080;21.992;2023-01-16T05:57:25;98203.04;;;3.20;89.78
65872;BME280;52653;50.080;21.992;2023-01-16T06:00:20;98195.94;;;3.21;89.89
65872;BME280;52653;50.080;21.992;2023-01-16T06:03:15;98195.95;;;3.23;89.78
65872;BME280;52653;50.080;21.992;2023-01-16T06:06:09;98201.68;;;3.27;89.69
65872;BME280;52653;50.080;21.992;2023-01-16T06:09:02;98202.20;;;3.30;89.74
65872;BME280;52653;50.080;21.992;2023-01-16T06:11:55;98200.64;;;3.30;89.44
65872;BME280;52653;50.080;21.992;2023-01-16T06:14:41;98192.52;;;3.31;89.43
65872;BME280;52653;50.080;21.992;2023-01-16T06:17:27;98190.64;;;3.36;89.49
65872;BME280;52653;50.080;21.992;2023-01-16T06:20:20;98187.34;;;3.40;89.32
65872;BME280;52653;50.080;21.992;2023-01-16T06:23:13;98189.08;;;3.38;88.77
65872;BME280;52653;50.080;21.992;2023-01-16T06:26:06;98188.91;;;3.37;88.81
65872;BME280;52653;50.080;21.992;2023-01-16T06:29:00;98187.52;;;3.36;88.82
65872;BME280;52653;50.080;21.992;2023-01-16T06:31:55;98195.14;;;3.34;88.69
65872;BME280;52653;50.080;21.992;2023-01-16T06:34:47;98197.70;;;3.29;88.80
65872;BME280;52653;50.080;21.992;2023-01-16T06:37:40;98198.39;;;3.26;89.23
65872;BME280;52653;50.080;21.992;2023-01-16T06:40:33;98198.02;;;3.22;89.05
65872;BME280;52653;50.080;21.992;2023-01-16T06:43:28;98201.14;;;3.21;89.11
65872;BME280;52653;50.080;21.992;2023-01-16T06:46:21;98212.05;;;3.21;89.13
65872;BME280;52653;50.080;21.992;2023-01-16T06:49:13;98214.49;;;3.22;89.07
65872;BME280;52653;50.080;21.992;2023-01-16T06:52:06;98217.96;;;3.25;89.12
65872;BME280;52653;50.080;21.992;2023-01-16T06:54:59;98214.67;;;3.29;88.98
65872;BME280;52653;50.080;21.992;2023-01-16T06:57:52;98212.46;;;3.34;89.11
65872;BME280;52653;50.080;21.992;2023-01-16T07:00:44;98207.98;;;3.38;88.92
65872;BME280;52653;50.080;21.992;2023-01-16T07:03:39;98207.14;;;3.44;89.14
65872;BME280;52653;50.080;21.992;2023-01-16T07:06:31;98206.46;;;3.50;89.00
65872;BME280;52653;50.080;21.992;2023-01-16T07:09:24;98204.92;;;3.55;88.81
65872;BME280;52653;50.080;21.992;2023-01-16T07:12:21;98205.98;;;3.59;88.93
65872;BME280;52653;50.080;21.992;2023-01-16T07:15:14;98196.27;;;3.56;88.46
65872;BME280;52653;50.080;21.992;2023-01-16T07:18:24;98196.23;;;3.53;88.48
65872;BME280;52653;50.080;21.992;2023-01-16T07:21:34;98194.51;;;3.50;88.67
65872;BME280;52653;50.080;21.992;2023-01-16T07:24:44;98189.65;;;3.49;88.35
65872;BME280;52653;50.080;21.992;2023-01-16T07:27:36;98186.19;;;3.52;88.52
65872;BME280;52653;50.080;21.992;2023-01-16T07:30:22;98186.39;;;3.58;88.45
65872;BME280;52653;50.080;21.992;2023-01-16T07:33:15;98183.83;;;3.69;88.44
65872;BME280;52653;50.080;21.992;2023-01-16T07:36:09;98184.89;;;3.79;88.27
65872;BME280;52653;50.080;21.992;2023-01-16T07:39:01;98179.20;;;3.90;88.23
65872;BME280;52653;50.080;21.992;2023-01-16T07:41:54;98176.27;;;3.99;87.81
65872;BME280;52653;50.080;21.992;2023-01-16T07:44:48;98173.84;;;4.06;87.63
65872;BME280;52653;50.080;21.992;2023-01-16T07:47:41;98170.21;;;4.11;87.66
65872;BME280;52653;50.080;21.992;2023-01-16T07:50:34;98170.04;;;4.18;87.73
65872;BME280;52653;50.080;21.992;2023-01-16T07:53:28;98165.02;;;4.23;87.65
65872;BME280;52653;50.080;21.992;2023-01-16T07:56:22;98161.55;;;4.24;87.49
65872;BME280;52653;50.080;21.992;2023-01-16T07:59:14;98164.33;;;4.23;87.13
65872;BME280;52653;50.080;21.992;2023-01-16T08:02:00;98161.91;;;4.22;87.00
65872;BME280;52653;50.080;21.992;2023-01-16T08:04:56;98162.94;;;4.23;86.82
65872;BME280;52653;50.080;21.992;2023-01-16T08:07:34;98159.64;;;4.27;86.89
65872;BME280;52653;50.080;21.992;2023-01-16T08:10:27;98155.83;;;4.34;86.88
65872;BME280;52653;50.080;21.992;2023-01-16T08:13:20;98157.55;;;4.43;86.77
65872;BME280;52653;50.080;21.992;2023-01-16T08:16:14;98141.23;;;4.49;86.49
65872;BME280;52653;50.080;21.992;2023-01-16T08:19:05;98138.27;;;4.55;86.31
65872;BME280;52653;50.080;21.992;2023-01-16T08:21:58;98132.02;;;4.64;86.24
65872;BME280;52653;50.080;21.992;2023-01-16T08:24:44;98135.47;;;4.73;86.20
65872;BME280;52653;50.080;21.992;2023-01-16T08:27:39;98125.89;;;4.83;86.06
65872;BME280;52653;50.080;21.992;2023-01-16T08:30:31;98122.92;;;4.87;85.47
65872;BME280;52653;50.080;21.992;2023-01-16T08:33:24;98110.95;;;4.88;85.21
65872;BME280;52653;50.080;21.992;2023-01-16T08:36:16;98097.91;;;4.87;84.91
65872;BME280;52653;50.080;21.992;2023-01-16T08:39:12;98095.46;;;4.91;85.07
65872;BME280;52653;50.080;21.992;2023-01-16T08:42:05;98087.94;;;5.04;85.25
65872;BME280;52653;50.080;21.992;2023-01-16T08:45:15;98087.52;;;5.23;84.89
65872;BME280;52653;50.080;21.992;2023-01-16T08:48:07;98089.17;;;5.41;84.59
65872;BME280;52653;50.080;21.992;2023-01-16T08:51:22;98093.76;;;5.62;83.89
65872;BME280;52653;50.080;21.992;2023-01-16T08:54:16;98088.41;;;5.79;83.35
65872;BME280;52653;50.080;21.992;2023-01-16T08:57:09;98091.63;;;5.96;83.05
65872;BME280;52653;50.080;21.992;2023-01-16T09:00:04;98093.40;;;6.15;82.79
65872;BME280;52653;50.080;21.992;2023-01-16T09:02:59;98091.88;;;6.30;81.81
65872;BME280;52653;50.080;21.992;2023-01-16T09:05:52;98091.97;;;6.40;81.16
65872;BME280;52653;50.080;21.992;2023-01-16T09:08:45;98092.10;;;6.44;80.51
65872;BME280;52653;50.080;21.992;2023-01-16T09:11:37;98090.69;;;6.45;80.50
65872;BME280;52653;50.080;21.992;2023-01-16T09:14:47;98078.49;;;6.45;80.42
65872;BME280;52653;50.080;21.992;2023-01-16T09:17:39;98071.52;;;6.45;80.76
65872;BME280;52653;50.080;21.992;2023-01-16T09:20:32;98067.92;;;6.42;80.19
65872;BME280;52653;50.080;21.992;2023-01-16T09:23:24;98069.05;;;6.32;79.97
65872;BME280;52653;50.080;21.992;2023-01-16T09:26:17;98068.10;;;6.23;79.90
65872;BME280;52653;50.080;21.992;2023-01-16T09:29:10;98065.48;;;6.21;80.59
65872;BME280;52653;50.080;21.992;2023-01-16T09:32:03;98062.55;;;6.20;80.34
65872;BME280;52653;50.080;21.992;2023-01-16T09:34:59;98062.60;;;6.14;79.95
65872;BME280;52653;50.080;21.992;2023-01-16T09:37:53;98052.61;;;6.03;79.64
65872;BME280;52653;50.080;21.992;2023-01-16T09:40:47;98047.78;;;5.96;80.09
65872;BME280;52653;50.080;21.992;2023-01-16T09:43:48;98046.77;;;5.91;80.37
65872;BME280;52653;50.080;21.992;2023-01-16T09:46:44;98043.84;;;5.85;80.45
65872;BME280;52653;50.080;21.992;2023-01-16T09:49:47;98038.48;;;5.79;80.49
65872;BME280;52653;50.080;21.992;2023-01-16T09:52:36;98023.05;;;5.75;80.54
65872;BME280;52653;50.080;21.992;2023-01-16T09:55:48;98012.45;;;5.71;80.63
65872;BME280;52653;50.080;21.992;2023-01-16T09:59:06;97999.58;;;5.70;80.82
65872;BME280;52653;50.080;21.992;2023-01-16T10:02:17;97984.09;;;5.72;81.00
65872;BME280;52653;50.080;21.992;2023-01-16T10:05:13;97971.33;;;5.80;81.12
65872;BME280;52653;50.080;21.992;2023-01-16T10:08:14;97971.39;;;5.94;81.29
65872;BME280;52653;50.080;21.992;2023-01-16T10:11:18;97977.88;;;6.09;80.93
65872;BME280;52653;50.080;21.992;2023-01-16T10:17:32;97955.38;;;6.29;80.26
65872;BME280;52653;50.080;21.992;2023-01-16T10:20:45;97958.98;;;6.34;79.58
65872;BME280;52653;50.080;21.992;2023-01-16T10:23:49;97963.15;;;6.36;79.39
65872;BME280;52653;50.080;21.992;2023-01-16T10:26:52;97951.48;;;6.36;79.29
65872;BME280;52653;50.080;21.992;2023-01-16T10:29:55;97939.30;;;6.36;79.08
65872;BME280;52653;50.080;21.992;2023-01-16T10:32:52;97940.86;;;6.36;78.99
65872;BME280;52653;50.080;21.992;2023-01-16T10:35:52;97921.97;;;6.28;78.41
65872;BME280;52653;50.080;21.992;2023-01-16T10:38:52;97913.55;;;6.17;78.68
65872;BME280;52653;50.080;21.992;2023-01-16T10:41:44;97909.02;;;6.17;79.38
65872;BME280;52653;50.080;21.992;2023-01-16T10:45:01;97903.98;;;6.16;79.04
65872;BME280;52653;50.080;21.992;2023-01-16T10:48:20;97893.65;;;6.07;78.65
65872;BME280;52653;50.080;21.992;2023-01-16T10:51:30;97893.07;;;5.96;78.76
65872;BME280;52653;50.080;21.992;2023-01-16T10:54:14;97892.06;;;5.93;79.18
65872;BME280;52653;50.080;21.992;2023-01-16T10:57:14;97886.16;;;5.91;79.22
65872;BME280;52653;50.080;21.992;2023-01-16T11:00:16;97883.39;;;5.88;79.13
65872;BME280;52653;50.080;21.992;2023-01-16T11:03:16;97885.70;;;5.82;79.11
65872;BME280;52653;50.080;21.992;2023-01-16T11:06:12;97877.88;;;5.82;79.49
65872;BME280;52653;50.080;21.992;2023-01-16T11:09:03;97866.02;;;5.83;79.46
65872;BME280;52653;50.080;21.992;2023-01-16T11:11:56;97856.45;;;5.83;79.35
65872;BME280;52653;50.080;21.992;2023-01-16T11:15:14;97846.88;;;5.86;79.53
65872;BME280;52653;50.080;21.992;2023-01-16T11:18:30;97836.04;;;5.92;79.61
65872;BME280;52653;50.080;21.992;2023-01-16T11:21:28;97824.23;;;5.89;78.83
65872;BME280;52653;50.080;21.992;2023-01-16T11:24:22;97817.48;;;5.83;78.93
65872;BME280;52653;50.080;21.992;2023-01-16T11:27:22;97810.67;;;5.87;79.28
65872;BME280;52653;50.080;21.992;2023-01-16T11:30:18;97796.52;;;5.93;78.94
65872;BME280;52653;50.080;21.992;2023-01-16T11:33:19;97789.36;;;5.95;78.75
65872;BME280;52653;50.080;21.992;2023-01-16T11:36:17;97786.94;;;5.95;78.94
65872;BME280;52653;50.080;21.992;2023-01-16T11:39:20;97779.73;;;6.01;79.27
65872;BME280;52653;50.080;21.992;2023-01-16T11:42:14;97766.69;;;6.01;79.03
65872;BME280;52653;50.080;21.992;2023-01-16T11:45:47;97757.34;;;5.96;78.78
65872;BME280;52653;50.080;21.992;2023-01-16T11:48:55;97751.27;;;5.94;78.71
65872;BME280;52653;50.080;21.992;2023-01-16T11:51:54;97747.83;;;5.92;78.77
65872;BME280;52653;50.080;21.992;2023-01-16T11:54:54;97743.14;;;5.90;78.85
65872;BME280;52653;50.080;21.992;2023-01-16T11:57:49;97735.53;;;5.85;78.91
65872;BME280;52653;50.080;21.992;2023-01-16T12:00:53;97733.96;;;5.84;79.05
65872;BME280;52653;50.080;21.992;2023-01-16T12:04:06;97729.45;;;5.83;79.37
65872;BME280;52653;50.080;21.992;2023-01-16T12:07:03;97716.29;;;5.79;79.29
65872;BME280;52653;50.080;21.992;2023-01-16T12:10:08;97711.48;;;5.75;79.31
65872;BME280;52653;50.080;21.992;2023-01-16T12:13:05;97707.83;;;5.74;79.47
65872;BME280;52653;50.080;21.992;2023-01-16T12:16:06;97703.31;;;5.74;79.70
65872;BME280;52653;50.080;21.992;2023-01-16T12:18:59;97702.46;;;5.72;79.84
65872;BME280;52653;50.080;21.992;2023-01-16T12:21:58;97697.30;;;5.68;79.99
65872;BME280;52653;50.080;21.992;2023-01-16T12:24:53;97699.66;;;5.61;80.21
65872;BME280;52653;50.080;21.992;2023-01-16T12:28:12;97693.11;;;5.54;80.31
65872;BME280;52653;50.080;21.992;2023-01-16T12:31:16;97686.39;;;5.50;80.69
65872;BME280;52653;50.080;21.992;2023-01-16T12:34:36;97687.48;;;5.48;80.73
65872;BME280;52653;50.080;21.992;2023-01-16T12:37:45;97684.70;;;5.44;80.97
65872;BME280;52653;50.080;21.992;2023-01-16T12:44:46;97679.80;;;5.36;81.52
65872;BME280;52653;50.080;21.992;2023-01-16T12:47:50;97678.42;;;5.32;81.80
65872;BME280;52653;50.080;21.992;2023-01-16T12:50:57;97669.23;;;5.29;81.88
65872;BME280;52653;50.080;21.992;2023-01-16T12:54:26;97666.33;;;5.26;81.99
65872;BME280;52653;50.080;21.992;2023-01-16T12:57:52;97663.60;;;5.23;82.32
65872;BME280;52653;50.080;21.992;2023-01-16T13:00:56;97658.95;;;5.17;82.60
65872;BME280;52653;50.080;21.992;2023-01-16T13:03:54;97658.30;;;5.15;83.08
65872;BME280;52653;50.080;21.992;2023-01-16T13:06:52;97655.20;;;5.11;83.23
65872;BME280;52653;50.080;21.992;2023-01-16T13:09:49;97653.85;;;5.08;83.40
65872;BME280;52653;50.080;21.992;2023-01-16T13:13:12;97651.27;;;5.06;83.80
65872;BME280;52653;50.080;21.992;2023-01-16T13:16:29;97647.30;;;5.04;83.95
65872;BME280;52653;50.080;21.992;2023-01-16T13:19:26;97640.38;;;5.01;84.19
65872;BME280;52653;50.080;21.992;2023-01-16T13:22:36;97633.80;;;4.98;84.21
65872;BME280;52653;50.080;21.992;2023-01-16T13:25:36;97623.93;;;4.95;84.39
65872;BME280;52653;50.080;21.992;2023-01-16T13:28:39;97620.81;;;4.94;84.38
65872;BME280;52653;50.080;21.992;2023-01-16T13:31:40;97623.43;;;4.92;84.49
65872;BME280;52653;50.080;21.992;2023-01-16T13:34:36;97617.88;;;4.92;84.56
65872;BME280;52653;50.080;21.992;2023-01-16T13:37:53;97611.30;;;4.91;84.59
65872;BME280;52653;50.080;21.992;2023-01-16T13:41:05;97607.48;;;4.90;84.89
65872;BME280;52653;50.080;21.992;2023-01-16T13:44:03;97600.02;;;4.89;84.96
65872;BME280;52653;50.080;21.992;2023-01-16T13:47:19;97595.71;;;4.87;85.11
65872;BME280;52653;50.080;21.992;2023-01-16T13:50:21;97593.32;;;4.84;85.40
65872;BME280;52653;50.080;21.992;2023-01-16T13:53:16;97590.02;;;4.83;85.60
65872;BME280;52653;50.080;21.992;2023-01-16T13:56:13;97586.73;;;4.81;85.63
65872;BME280;52653;50.080;21.992;2023-01-16T13:59:08;97583.95;;;4.81;85.74
65872;BME280;52653;50.080;21.992;2023-01-16T14:02:40;97584.45;;;4.85;86.14
65872;BME280;52653;50.080;21.992;2023-01-16T14:05:43;97576.56;;;4.90;86.29
65872;BME280;52653;50.080;21.992;2023-01-16T14:09:06;97576.51;;;4.95;86.26
65872;BME280;52653;50.080;21.992;2023-01-16T14:12:03;97572.73;;;4.91;85.95
65872;BME280;52653;50.080;21.992;2023-01-16T14:15:19;97567.94;;;4.86;86.00
65872;BME280;52653;50.080;21.992;2023-01-16T14:18:39;97566.11;;;4.78;86.23
65872;BME280;52653;50.080;21.992;2023-01-16T14:21:43;97559.77;;;4.71;86.47
65872;BME280;52653;50.080;21.992;2023-01-16T14:24:58;97551.83;;;4.65;86.92
65872;BME280;52653;50.080;21.992;2023-01-16T14:27:53;97544.08;;;4.61;87.10
65872;BME280;52653;50.080;21.992;2023-01-16T14:30:49;97538.55;;;4.57;87.34
65872;BME280;52653;50.080;21.992;2023-01-16T14:33:45;97532.46;;;4.59;87.69
65872;BME280;52653;50.080;21.992;2023-01-16T14:36:39;97531.38;;;4.62;87.73
65872;BME280;52653;50.080;21.992;2023-01-16T14:39:34;97531.74;;;4.61;87.42
65872;BME280;52653;50.080;21.992;2023-01-16T14:42:24;97526.91;;;4.59;87.48
65872;BME280;52653;50.080;21.992;2023-01-16T14:45:38;97519.44;;;4.60;87.53
65872;BME280;52653;50.080;21.992;2023-01-16T14:48:43;97511.97;;;4.60;87.43
65872;BME280;52653;50.080;21.992;2023-01-16T14:52:01;97505.92;;;4.58;87.61
65872;BME280;52653;50.080;21.992;2023-01-16T14:55:13;97500.86;;;4.59;87.98
65872;BME280;52653;50.080;21.992;2023-01-16T14:57:49;97494.74;;;4.63;88.08
65872;BME280;52653;50.080;21.992;2023-01-16T15:00:59;97493.70;;;4.62;87.77
65872;BME280;52653;50.080;21.992;2023-01-16T15:04:14;97491.64;;;4.61;87.88
65872;BME280;52653;50.080;21.992;2023-01-16T15:07:10;97485.42;;;4.59;87.98
65872;BME280;52653;50.080;21.992;2023-01-16T15:10:09;97485.08;;;4.59;88.12
65872;BME280;52653;50.080;21.992;2023-01-16T15:13:15;97480.36;;;4.61;88.33
65872;BME280;52653;50.080;21.992;2023-01-16T15:15:57;97477.16;;;4.66;88.81
65872;BME280;52653;50.080;21.992;2023-01-16T15:18:44;97476.91;;;4.74;88.79
65872;BME280;52653;50.080;21.992;2023-01-16T15:21:46;97471.47;;;4.77;88.66
65872;BME280;52653;50.080;21.992;2023-01-16T15:24:56;97466.58;;;4.79;88.54
65872;BME280;52653;50.080;21.992;2023-01-16T15:27:50;97462.61;;;4.77;88.51
65872;BME280;52653;50.080;21.992;2023-01-16T15:30:36;97454.89;;;4.70;88.59
65872;BME280;52653;50.080;21.992;2023-01-16T15:33:30;97456.70;;;4.63;88.64
65872;BME280;52653;50.080;21.992;2023-01-16T15:36:22;97452.27;;;4.57;88.88
65872;BME280;52653;50.080;21.992;2023-01-16T15:39:27;97448.34;;;4.52;89.15
65872;BME280;52653;50.080;21.992;2023-01-16T15:42:23;97448.40;;;4.49;89.40
65872;BME280;52653;50.080;21.992;2023-01-16T15:45:28;97445.48;;;4.44;89.86
65872;BME280;52653;50.080;21.992;2023-01-16T15:48:34;97448.09;;;4.43;90.03
65872;BME280;52653;50.080;21.992;2023-01-16T15:51:22;97449.48;;;4.44;89.96